createdAt,value
2022-08-11T00:01:22.253Z,3.60
2022-08-11T00:04:09.729Z,3.77
2022-08-11T00:07:00.774Z,3.23
2022-08-11T00:09:48.642Z,3.43
2022-08-11T00:12:36.003Z,3.37
2022-08-11T00:15:37.009Z,3.57
2022-08-11T00:18:24.659Z,3.50
2022-08-11T00:21:13.011Z,3.30
2022-08-11T00:24:02.245Z,3.13
2022-08-11T00:26:52.322Z,2.83
2022-08-11T00:29:51.899Z,3.07
2022-08-11T00:32:41.497Z,3.37
2022-08-11T00:35:52.435Z,3.77
2022-08-11T00:38:42.108Z,3.57
2022-08-11T00:41:53.730Z,3.70
2022-08-11T00:45:03.258Z,3.60
2022-08-11T00:47:55.878Z,3.90
2022-08-11T00:50:53.449Z,3.80
2022-08-11T00:54:02.868Z,3.93
2022-08-11T00:56:58.817Z,3.67
2022-08-11T01:00:11.163Z,3.80
2022-08-11T01:03:18.035Z,3.90
2022-08-11T01:06:29.873Z,3.80
2022-08-11T01:09:53.634Z,3.73
2022-08-11T01:12:40.534Z,3.77
2022-08-11T01:16:04.143Z,3.60
2022-08-11T01:18:54.681Z,4.47
2022-08-11T01:22:00.027Z,4.43
2022-08-11T01:25:12.009Z,4.73
2022-08-11T01:28:22.198Z,4.23
2022-08-11T01:31:30.985Z,4.47
2022-08-11T01:34:26.869Z,4.03
2022-08-11T01:37:41.121Z,4.20
2022-08-11T01:41:08.490Z,4.60
2022-08-11T01:44:38.001Z,4.23
2022-08-11T01:47:53.263Z,4.83
2022-08-11T01:51:05.562Z,3.90
2022-08-11T01:54:22.162Z,4.40
2022-08-11T01:57:30.528Z,4.30
2022-08-11T02:00:28.313Z,4.13
2022-08-11T02:03:27.292Z,3.93
2022-08-11T02:06:49.314Z,4.43
2022-08-11T02:10:00.730Z,3.90
2022-08-11T02:12:58.495Z,4.00
2022-08-11T02:15:55.179Z,4.30
2022-08-11T02:19:15.329Z,4.10
2022-08-11T02:22:38.008Z,4.37
2022-08-11T02:25:45.401Z,4.33
2022-08-11T02:29:01.849Z,4.23
2022-08-11T02:32:31.222Z,4.57
2022-08-11T02:35:36.801Z,4.57
2022-08-11T02:38:56.043Z,5.50
2022-08-11T02:42:32.617Z,5.70
2022-08-11T02:45:47.989Z,5.00
2022-08-11T02:49:15.622Z,5.33
2022-08-11T02:52:14.467Z,5.10
2022-08-11T02:55:07.411Z,4.87
2022-08-11T02:58:10.097Z,4.60
2022-08-11T03:01:22.362Z,5.00
2022-08-11T03:04:18.159Z,4.63
2022-08-11T03:07:29.721Z,5.10
2022-08-11T03:10:24.565Z,4.67
2022-08-11T03:13:41.239Z,5.00
2022-08-11T03:16:48.256Z,4.50
2022-08-11T03:19:49.496Z,5.30
2022-08-11T03:23:19.753Z,4.47
2022-08-11T03:26:32.072Z,4.87
2022-08-11T03:29:54.558Z,4.60
2022-08-11T03:33:31.092Z,5.00
2022-08-11T03:37:17.187Z,5.07
2022-08-11T03:39:59.147Z,4.40
2022-08-11T03:42:55.034Z,5.00
2022-08-11T03:45:57.355Z,4.23
2022-08-11T03:49:06.063Z,4.47
2022-08-11T03:52:21.000Z,5.40
2022-08-11T03:55:48.084Z,5.37
2022-08-11T03:58:53.814Z,4.57
2022-08-11T04:02:08.590Z,5.40
2022-08-11T04:05:47.806Z,5.20
2022-08-11T04:09:12.101Z,4.60
2022-08-11T04:12:35.602Z,5.00
2022-08-11T04:15:54.520Z,4.73
2022-08-11T04:19:00.002Z,5.83
2022-08-11T04:22:05.956Z,5.43
2022-08-11T04:25:07.363Z,5.07
2022-08-11T04:27:54.718Z,4.90
2022-08-11T04:30:58.858Z,5.20
2022-08-11T04:34:07.129Z,5.40
2022-08-11T04:37:24.982Z,5.40
2022-08-11T04:40:39.941Z,5.07
2022-08-11T04:44:02.334Z,5.43
2022-08-11T04:48:04.408Z,5.00
2022-08-11T04:51:25.516Z,5.20
2022-08-11T04:54:55.925Z,5.47
2022-08-11T04:58:31.967Z,6.07
2022-08-11T05:01:55.090Z,5.50
2022-08-11T05:05:08.253Z,5.50
2022-08-11T05:08:24.224Z,6.27
2022-08-11T05:11:36.149Z,6.17
2022-08-11T05:14:51.206Z,5.60
2022-08-11T05:18:18.520Z,6.17
2022-08-11T05:21:28.358Z,5.80
2022-08-11T05:25:14.859Z,6.30
2022-08-11T05:28:55.870Z,5.63
2022-08-11T05:32:08.334Z,6.77
2022-08-11T05:34:56.893Z,6.83
2022-08-11T05:38:04.986Z,6.53
2022-08-11T05:41:14.481Z,5.37
2022-08-11T05:44:22.648Z,5.33
2022-08-11T05:47:28.626Z,5.47
2022-08-11T05:50:37.255Z,4.97
2022-08-11T05:53:45.840Z,5.00
2022-08-11T05:56:34.950Z,4.87
2022-08-11T05:59:24.483Z,4.60
2022-08-11T06:02:12.795Z,5.13
2022-08-11T06:05:02.140Z,5.60
2022-08-11T06:07:50.324Z,4.60
2022-08-11T06:10:39.610Z,4.30
2022-08-11T06:13:27.727Z,4.40
2022-08-11T06:16:17.942Z,4.13
2022-08-11T06:19:05.706Z,4.57
2022-08-11T06:21:54.389Z,4.00
2022-08-11T06:24:51.086Z,3.50
2022-08-11T06:27:40.919Z,3.40
2022-08-11T06:30:54.460Z,3.60
2022-08-11T06:34:10.730Z,3.47
2022-08-11T06:37:16.302Z,3.10
2022-08-11T06:40:27.797Z,3.10
2022-08-11T06:43:24.406Z,3.13
2022-08-11T06:46:28.211Z,2.60
2022-08-11T06:49:36.775Z,3.00
2022-08-11T06:52:45.222Z,2.80
2022-08-11T06:55:58.813Z,2.90
2022-08-11T06:59:07.969Z,2.73
2022-08-11T07:02:07.069Z,2.70
2022-08-11T07:05:01.628Z,2.50
2022-08-11T07:08:36.110Z,3.03
2022-08-11T07:12:06.012Z,2.70
2022-08-11T07:15:14.015Z,2.63
2022-08-11T07:18:24.469Z,2.70
2022-08-11T07:22:01.444Z,2.30
2022-08-11T07:25:11.705Z,2.10
2022-08-11T07:28:20.603Z,2.70
2022-08-11T07:31:14.145Z,2.50
2022-08-11T07:34:33.525Z,2.30
2022-08-11T07:37:23.090Z,1.90
2022-08-11T07:40:11.441Z,2.13
2022-08-11T07:43:03.677Z,2.37
2022-08-11T07:46:09.128Z,2.27
2022-08-11T07:49:16.180Z,2.30
2022-08-11T07:52:22.226Z,1.83
2022-08-11T07:55:15.176Z,2.43
2022-08-11T07:58:21.594Z,2.13
2022-08-11T08:01:36.944Z,2.20
2022-08-11T08:04:46.828Z,2.07
2022-08-11T08:07:55.705Z,2.10
2022-08-11T08:11:02.300Z,2.08
2022-08-11T08:14:08.552Z,1.90
2022-08-11T08:17:15.403Z,2.00
2022-08-11T08:20:04.005Z,1.90
2022-08-11T08:22:56.498Z,2.10
2022-08-11T08:25:45.265Z,2.00
2022-08-11T08:28:33.681Z,2.58
2022-08-11T08:31:21.243Z,2.00
2022-08-11T08:34:09.294Z,1.98
2022-08-11T08:36:56.651Z,2.00
2022-08-11T08:39:46.510Z,1.85
2022-08-11T08:42:45.072Z,2.10
2022-08-11T08:45:37.706Z,2.08
2022-08-11T08:48:27.156Z,2.00
2022-08-11T08:51:58.648Z,1.92
2022-08-11T08:54:43.300Z,2.33
2022-08-11T08:57:39.312Z,1.92
2022-08-11T09:00:40.005Z,2.05
2022-08-11T09:04:07.155Z,1.90
2022-08-11T09:06:40.062Z,1.80
2022-08-11T09:09:27.866Z,2.00
2022-08-11T09:12:17.105Z,1.92
2022-08-11T09:15:24.447Z,1.83
2022-08-11T09:18:12.806Z,1.70
2022-08-11T09:21:02.357Z,2.10
2022-08-11T09:24:14.936Z,2.00
2022-08-11T09:27:10.845Z,2.35
2022-08-11T09:29:58.650Z,2.50
2022-08-11T09:32:45.623Z,2.08
2022-08-11T09:35:39.602Z,1.77
2022-08-11T09:38:49.463Z,1.80
2022-08-11T09:42:01.757Z,2.05
2022-08-11T09:44:53.052Z,2.00
2022-08-11T09:47:40.718Z,2.00
2022-08-11T09:50:28.403Z,2.00
2022-08-11T09:53:35.834Z,2.10
2022-08-11T09:56:43.134Z,1.50
2022-08-11T09:59:30.715Z,1.70
2022-08-11T10:02:19.017Z,1.80
2022-08-11T10:05:25.850Z,2.08
2022-08-11T10:08:17.765Z,1.90
2022-08-11T10:11:06.793Z,1.88
2022-08-11T10:14:33.520Z,1.70
2022-08-11T10:17:21.873Z,1.88
2022-08-11T10:20:11.016Z,1.70
2022-08-11T10:23:17.977Z,1.63
2022-08-11T10:26:25.483Z,1.80
2022-08-11T10:29:36.795Z,1.80
2022-08-11T10:32:58.416Z,1.60
2022-08-11T10:35:47.541Z,1.70
2022-08-11T10:38:35.993Z,1.80
2022-08-11T10:42:07.441Z,1.70
2022-08-11T10:44:53.330Z,1.65
2022-08-11T10:47:46.783Z,1.77
2022-08-11T10:50:56.769Z,1.50
2022-08-11T10:54:12.441Z,1.55
2022-08-11T10:57:19.586Z,1.83
2022-08-11T11:00:10.245Z,1.73
2022-08-11T11:03:05.422Z,1.73
2022-08-11T11:06:28.411Z,1.85
2022-08-11T11:09:38.447Z,1.85
2022-08-11T11:12:50.375Z,1.80
2022-08-11T11:15:59.626Z,1.80
2022-08-11T11:19:00.981Z,1.70
2022-08-11T11:21:51.253Z,1.80
2022-08-11T11:25:08.171Z,1.60
2022-08-11T11:27:59.979Z,2.00
2022-08-11T11:31:16.782Z,1.98
2022-08-11T11:34:53.097Z,2.13
2022-08-11T11:38:04.435Z,1.80
2022-08-11T11:41:11.654Z,1.58
2022-08-11T11:44:01.338Z,1.80
2022-08-11T11:46:50.046Z,2.10
2022-08-11T11:49:39.883Z,1.65
2022-08-11T11:52:27.842Z,1.90
2022-08-11T11:55:15.015Z,1.77
2022-08-11T11:58:22.539Z,1.90
2022-08-11T12:01:16.544Z,1.80
2022-08-11T12:04:08.318Z,1.63
2022-08-11T12:07:15.767Z,1.88
2022-08-11T12:10:03.436Z,1.95
2022-08-11T12:13:09.787Z,1.90
2022-08-11T12:16:06.487Z,1.88
2022-08-11T12:19:17.849Z,1.40
2022-08-11T12:22:23.847Z,1.80
2022-08-11T12:25:29.710Z,1.90
2022-08-11T12:28:16.998Z,1.40
2022-08-11T12:31:04.469Z,1.70
2022-08-11T12:33:51.862Z,2.08
2022-08-11T12:36:45.301Z,1.90
2022-08-11T12:40:10.750Z,2.10
2022-08-11T12:43:39.051Z,2.20
2022-08-11T12:46:32.707Z,2.00
2022-08-11T12:49:45.230Z,1.95
2022-08-11T12:52:45.966Z,1.85
2022-08-11T12:56:07.600Z,2.00
2022-08-11T12:59:15.186Z,2.15
2022-08-11T13:02:22.275Z,1.48
2022-08-11T13:05:16.828Z,1.73
2022-08-11T13:08:05.076Z,2.00
2022-08-11T13:11:13.194Z,2.03
2022-08-11T13:14:01.466Z,2.03
2022-08-11T13:17:07.912Z,1.83
2022-08-11T13:19:59.057Z,1.90
2022-08-11T13:22:50.019Z,2.00
2022-08-11T13:25:38.881Z,1.90
2022-08-11T13:28:26.120Z,1.83
2022-08-11T13:31:15.110Z,1.70
2022-08-11T13:36:54.441Z,1.90
2022-08-11T13:39:47.393Z,1.88
2022-08-11T13:42:35.484Z,2.05
2022-08-11T13:45:23.946Z,1.90
2022-08-11T13:48:12.469Z,1.92
2022-08-11T13:51:18.121Z,1.60
2022-08-11T13:54:09.023Z,1.65
2022-08-11T13:57:00.532Z,1.80
2022-08-11T13:59:54.375Z,1.80
2022-08-11T14:02:45.636Z,1.98
2022-08-11T14:05:39.854Z,2.35
2022-08-11T14:08:38.424Z,1.90
2022-08-11T14:12:22.665Z,1.98
2022-08-11T14:15:07.836Z,1.70
2022-08-11T14:18:01.820Z,1.67
2022-08-11T14:21:15.046Z,1.88
2022-08-11T14:24:04.679Z,1.88
2022-08-11T14:26:53.108Z,1.73
2022-08-11T14:29:48.558Z,1.90
2022-08-11T14:32:52.873Z,1.70
2022-08-11T14:35:44.512Z,1.70
2022-08-11T14:38:37.071Z,1.80
2022-08-11T14:42:10.177Z,2.05
2022-08-11T14:45:55.523Z,1.90
2022-08-11T14:48:38.051Z,1.90
2022-08-11T14:51:27.032Z,1.70
2022-08-11T14:54:34.736Z,1.60
2022-08-11T14:57:55.690Z,1.98
2022-08-11T15:00:33.188Z,1.90
2022-08-11T15:03:26.292Z,1.77
2022-08-11T15:06:15.281Z,1.45
2022-08-11T15:09:08.384Z,1.60
2022-08-11T15:12:32.286Z,1.90
2022-08-11T15:15:35.614Z,1.95
2022-08-11T15:18:26.678Z,1.80
2022-08-11T15:21:32.238Z,1.70
2022-08-11T15:24:19.462Z,1.70
2022-08-11T15:27:32.402Z,1.65
2022-08-11T15:30:38.276Z,1.83
2022-08-11T15:33:47.255Z,1.80
2022-08-11T15:36:53.776Z,1.90
2022-08-11T15:40:31.452Z,1.83
2022-08-11T15:43:44.677Z,1.52
2022-08-11T15:46:55.671Z,1.80
2022-08-11T15:50:11.075Z,1.70
2022-08-11T15:53:32.296Z,2.00
2022-08-11T15:56:23.129Z,2.13
2022-08-11T15:59:41.802Z,2.10
2022-08-11T16:02:50.376Z,2.08
2022-08-11T16:05:46.551Z,1.58
2022-08-11T16:08:44.095Z,1.70
2022-08-11T16:11:35.125Z,1.80
2022-08-11T16:14:43.105Z,1.73
2022-08-11T16:17:38.462Z,2.00
2022-08-11T16:20:29.950Z,1.73
2022-08-11T16:23:18.723Z,1.83
2022-08-11T16:27:08.307Z,1.63
2022-08-11T16:29:26.988Z,1.80
2022-08-11T16:32:22.280Z,1.77
2022-08-11T16:35:38.037Z,1.88
2022-08-11T16:38:36.055Z,2.20
2022-08-11T16:41:46.206Z,1.85
2022-08-11T16:44:52.755Z,1.77
2022-08-11T16:48:03.414Z,1.90
2022-08-11T16:50:49.253Z,1.60
2022-08-11T16:54:00.206Z,1.80
2022-08-11T16:56:51.955Z,1.88
2022-08-11T16:59:39.468Z,1.80
2022-08-11T17:02:52.363Z,1.90
2022-08-11T17:06:09.654Z,1.92
2022-08-11T17:09:18.179Z,1.65
2022-08-11T17:12:25.690Z,1.83
2022-08-11T17:15:36.653Z,1.50
2022-08-11T17:18:41.863Z,1.80
2022-08-11T17:21:57.640Z,1.80
2022-08-11T17:24:47.824Z,1.92
2022-08-11T17:27:37.111Z,1.90
2022-08-11T17:30:47.143Z,1.75
2022-08-11T17:33:54.257Z,2.05
2022-08-11T17:36:45.841Z,1.58
2022-08-11T17:39:35.819Z,2.00
2022-08-11T17:42:43.403Z,2.28
2022-08-11T17:45:49.849Z,2.00
2022-08-11T17:48:47.758Z,2.08
2022-08-11T17:51:55.753Z,2.17
2022-08-11T17:55:02.714Z,1.92
2022-08-11T17:58:14.086Z,1.80
2022-08-11T18:01:09.258Z,2.10
2022-08-11T18:03:58.579Z,2.45
2022-08-11T18:06:47.138Z,2.38
2022-08-11T18:09:52.938Z,2.30
2022-08-11T18:12:58.961Z,2.38
2022-08-11T18:16:05.571Z,2.60
2022-08-11T18:19:12.479Z,2.42
2022-08-11T18:22:31.990Z,2.70
2022-08-11T18:25:45.589Z,2.20
2022-08-11T18:29:03.781Z,2.20
2022-08-11T18:32:12.293Z,2.30
2022-08-11T18:35:29.233Z,2.42
2022-08-11T18:38:36.366Z,2.53
2022-08-11T18:41:44.510Z,2.70
2022-08-11T18:44:52.868Z,2.53
2022-08-11T18:48:00.776Z,2.03
2022-08-11T18:51:30.336Z,2.25
2022-08-11T18:54:39.932Z,2.38
2022-08-11T18:57:49.645Z,2.35
2022-08-11T19:01:00.212Z,2.40
2022-08-11T19:04:11.888Z,2.22
2022-08-11T19:07:25.717Z,2.45
2022-08-11T19:10:32.862Z,2.45
2022-08-11T19:13:43.455Z,2.45
2022-08-11T19:16:50.996Z,2.20
2022-08-11T19:19:57.952Z,2.40
2022-08-11T19:23:06.527Z,2.50
2022-08-11T19:26:12.602Z,2.40
2022-08-11T19:30:08.070Z,2.45
2022-08-11T19:32:48.445Z,2.58
2022-08-11T19:35:55.741Z,2.50
2022-08-11T19:39:02.735Z,2.50
2022-08-11T19:42:08.979Z,2.50
2022-08-11T19:45:16.012Z,2.28
2022-08-11T19:48:31.757Z,2.47
2022-08-11T19:51:39.735Z,2.27
2022-08-11T19:54:48.533Z,2.53
2022-08-11T19:57:57.304Z,2.30
2022-08-11T20:01:03.358Z,2.40
2022-08-11T20:04:09.283Z,2.30
2022-08-11T20:07:16.359Z,2.50
2022-08-11T20:10:24.231Z,2.60
2022-08-11T20:13:30.995Z,2.60
2022-08-11T20:16:39.239Z,2.90
2022-08-11T20:19:56.405Z,2.80
2022-08-11T20:23:05.520Z,2.30
2022-08-11T20:26:30.299Z,2.73
2022-08-11T20:29:44.575Z,2.50
2022-08-11T20:32:50.639Z,2.80
2022-08-11T20:35:58.045Z,2.43
2022-08-11T20:39:05.574Z,2.40
2022-08-11T20:42:13.634Z,2.83
2022-08-11T20:45:24.062Z,2.87
2022-08-11T20:48:29.974Z,2.70
2022-08-11T20:51:38.626Z,2.63
2022-08-11T20:54:46.030Z,2.60
2022-08-11T20:58:01.586Z,3.07
2022-08-11T21:01:16.243Z,2.60
2022-08-11T21:04:26.435Z,2.73
2022-08-11T21:07:35.361Z,3.07
2022-08-11T21:10:50.614Z,2.90
2022-08-11T21:14:02.054Z,3.00
2022-08-11T21:17:27.636Z,3.10
2022-08-11T21:20:35.462Z,2.77
2022-08-11T21:23:43.709Z,2.93
2022-08-11T21:26:51.894Z,2.80
2022-08-11T21:29:58.294Z,3.07
2022-08-11T21:33:04.589Z,2.53
2022-08-11T21:36:10.678Z,2.97
2022-08-11T21:39:16.691Z,2.90
2022-08-11T21:42:25.079Z,2.83
2022-08-11T21:45:33.298Z,2.90
2022-08-11T21:48:40.392Z,2.83
2022-08-11T21:51:46.114Z,2.67
2022-08-11T21:54:51.617Z,2.50
2022-08-11T21:57:58.418Z,2.97
2022-08-11T22:01:04.207Z,2.90
2022-08-11T22:04:09.769Z,3.17
2022-08-11T22:07:16.129Z,2.90
2022-08-11T22:10:40.161Z,3.10
2022-08-11T22:14:01.210Z,2.73
2022-08-11T22:17:13.194Z,2.90
2022-08-11T22:20:20.159Z,2.90
2022-08-11T22:23:26.927Z,3.20
2022-08-11T22:26:42.894Z,3.00
2022-08-11T22:29:53.326Z,3.00
2022-08-11T22:33:00.043Z,3.07
2022-08-11T22:36:09.840Z,3.10
2022-08-11T22:39:18.246Z,2.90
2022-08-11T22:42:33.225Z,2.63
2022-08-11T22:45:39.602Z,2.97
2022-08-11T22:48:48.900Z,2.80
2022-08-11T22:51:56.226Z,3.13
2022-08-11T22:55:03.258Z,2.80
2022-08-11T22:58:09.867Z,3.03
2022-08-11T23:01:17.442Z,2.80
2022-08-11T23:04:24.635Z,2.73
2022-08-11T23:07:50.143Z,2.60
2022-08-11T23:10:57.748Z,2.83
2022-08-11T23:14:03.797Z,2.90
2022-08-11T23:17:10.311Z,2.93
2022-08-11T23:20:28.664Z,3.10
2022-08-11T23:23:38.933Z,2.53
2022-08-11T23:26:47.556Z,2.80
2022-08-11T23:29:54.138Z,2.70
2022-08-11T23:33:04.397Z,2.70
2022-08-11T23:36:10.361Z,2.60
2022-08-11T23:39:36.145Z,2.83
2022-08-11T23:42:41.891Z,2.60
2022-08-11T23:45:51.859Z,2.30
2022-08-11T23:48:58.451Z,2.40
2022-08-11T23:52:06.834Z,2.60
2022-08-11T23:55:13.421Z,2.53
2022-08-11T23:58:19.388Z,2.47
